createdAt,value
2023-01-13T00:00:23.375Z,-6.39
2023-01-13T00:02:50.023Z,-6.36
2023-01-13T00:05:16.690Z,-6.43
2023-01-13T00:07:43.340Z,-6.41
2023-01-13T00:10:11.135Z,-6.34
2023-01-13T00:12:41.750Z,-6.48
2023-01-13T00:15:09.534Z,-6.44
2023-01-13T00:17:36.452Z,-6.43
2023-01-13T00:20:03.426Z,-6.25
2023-01-13T00:22:33.365Z,-6.38
2023-01-13T00:24:59.929Z,-6.27
2023-01-13T00:27:26.517Z,-6.24
2023-01-13T00:29:53.287Z,-6.17
2023-01-13T00:32:19.873Z,-6.18
2023-01-13T00:34:46.489Z,-6.29
2023-01-13T00:37:13.189Z,-6.40
2023-01-13T00:39:39.771Z,-6.44
2023-01-13T00:42:07.660Z,-6.40
2023-01-13T00:44:34.360Z,-6.39
2023-01-13T00:47:01.051Z,-6.41
2023-01-13T00:49:27.643Z,-6.50
2023-01-13T00:51:54.210Z,-6.41
2023-01-13T00:54:20.748Z,-6.47
2023-01-13T00:56:47.253Z,-6.45
2023-01-13T00:59:14.281Z,-6.43
2023-01-13T01:01:41.727Z,-6.48
2023-01-13T01:04:08.823Z,-6.43
2023-01-13T01:06:35.442Z,-6.33
2023-01-13T01:09:02.191Z,-6.24
2023-01-13T01:11:31.024Z,-6.25
2023-01-13T01:13:59.736Z,-6.28
2023-01-13T01:16:29.011Z,-6.34
2023-01-13T01:18:56.700Z,-6.24
2023-01-13T01:21:25.535Z,-6.22
2023-01-13T01:23:52.626Z,-6.39
2023-01-13T01:26:24.815Z,-6.31
2023-01-13T01:28:52.423Z,-6.27
2023-01-13T01:31:21.829Z,-6.15
2023-01-13T01:33:49.236Z,-6.12
2023-01-13T01:36:17.879Z,-6.10
2023-01-13T01:38:44.984Z,-6.06
2023-01-13T01:41:17.902Z,-5.97
2023-01-13T01:43:55.359Z,-5.95
2023-01-13T01:46:22.250Z,-6.07
2023-01-13T01:48:48.924Z,-5.90
2023-01-13T01:51:16.144Z,-5.97
2023-01-13T01:53:43.171Z,-5.84
2023-01-13T01:56:10.939Z,-5.98
2023-01-13T01:58:48.919Z,-5.80
2023-01-13T02:01:16.217Z,-6.03
2023-01-13T02:03:50.423Z,-6.11
2023-01-13T02:06:17.362Z,-6.07
2023-01-13T02:08:44.103Z,-6.11
2023-01-13T02:11:27.323Z,-6.12
2023-01-13T02:13:54.063Z,-6.04
2023-01-13T02:16:24.082Z,-6.03
2023-01-13T02:19:06.878Z,-6.23
2023-01-13T02:22:08.383Z,-6.11
2023-01-13T02:24:56.117Z,-6.14
2023-01-13T02:27:40.079Z,-6.26
2023-01-13T02:30:15.650Z,-6.30
2023-01-13T02:33:03.227Z,-6.19
2023-01-13T02:35:44.783Z,-6.15
2023-01-13T02:38:15.246Z,-6.16
2023-01-13T02:40:51.047Z,-6.12
2023-01-13T02:43:28.130Z,-6.20
2023-01-13T02:46:03.660Z,-6.23
2023-01-13T02:48:32.289Z,-6.21
2023-01-13T02:51:08.070Z,-6.25
2023-01-13T02:53:40.861Z,-6.33
2023-01-13T02:56:09.957Z,-6.23
2023-01-13T02:58:40.275Z,-6.18
2023-01-13T03:01:07.881Z,-6.06
2023-01-13T03:03:34.475Z,-6.10
2023-01-13T03:06:27.244Z,-6.01
2023-01-13T03:08:59.122Z,-6.12
2023-01-13T03:11:32.892Z,-6.13
2023-01-13T03:14:10.901Z,-6.27
2023-01-13T03:16:45.095Z,-6.18
2023-01-13T03:19:30.884Z,-6.15
2023-01-13T03:22:22.110Z,-6.06
2023-01-13T03:24:55.187Z,-6.18
2023-01-13T03:27:47.249Z,-6.10
2023-01-13T03:30:40.414Z,-6.11
2023-01-13T03:33:15.789Z,-6.19
2023-01-13T03:35:45.985Z,-6.11
2023-01-13T03:38:22.153Z,-5.83
2023-01-13T03:40:59.132Z,-5.98
2023-01-13T03:43:35.393Z,-5.94
2023-01-13T03:46:10.026Z,-6.01
2023-01-13T03:48:42.378Z,-6.04
2023-01-13T03:51:15.413Z,-6.02
2023-01-13T03:53:48.843Z,-5.82
2023-01-13T03:56:26.379Z,-5.98
2023-01-13T03:58:54.482Z,-6.13
2023-01-13T04:01:30.970Z,-5.93
2023-01-13T04:04:01.599Z,-5.80
2023-01-13T04:06:42.925Z,-6.04
2023-01-13T04:09:41.307Z,-5.99
2023-01-13T04:12:17.850Z,-6.07
2023-01-13T04:14:45.987Z,-6.03
2023-01-13T04:17:12.851Z,-6.03
2023-01-13T04:19:39.439Z,-6.12
2023-01-13T04:22:06.087Z,-5.95
2023-01-13T04:24:32.651Z,-5.93
2023-01-13T04:26:59.228Z,-5.88
2023-01-13T04:29:26.509Z,-5.93
2023-01-13T04:31:53.037Z,-5.94
2023-01-13T04:34:19.524Z,-5.91
2023-01-13T04:36:46.096Z,-5.84
2023-01-13T04:39:12.665Z,-5.68
2023-01-13T04:41:39.267Z,-5.95
2023-01-13T04:44:05.891Z,-5.90
2023-01-13T04:46:32.483Z,-5.92
2023-01-13T04:48:59.218Z,-5.96
2023-01-13T04:51:25.931Z,-5.87
2023-01-13T04:53:52.463Z,-5.90
2023-01-13T04:56:19.035Z,-5.94
2023-01-13T04:58:45.599Z,-5.98
2023-01-13T05:01:12.297Z,-5.97
2023-01-13T05:03:38.851Z,-5.83
2023-01-13T05:06:05.658Z,-5.81
2023-01-13T05:08:32.123Z,-5.82
2023-01-13T05:11:01.429Z,-5.72
2023-01-13T05:13:27.940Z,-5.59
2023-01-13T05:15:54.474Z,-5.54
2023-01-13T05:18:21.503Z,-5.65
2023-01-13T05:20:48.033Z,-5.66
2023-01-13T05:23:14.569Z,-5.61
2023-01-13T05:25:44.282Z,-5.58
2023-01-13T05:28:11.427Z,-5.53
2023-01-13T05:30:41.951Z,-5.64
2023-01-13T05:33:12.640Z,-5.63
2023-01-13T05:35:41.099Z,-5.60
2023-01-13T05:38:07.794Z,-5.61
2023-01-13T05:40:34.596Z,-5.66
2023-01-13T05:43:14.790Z,-5.45
2023-01-13T05:45:41.382Z,-5.56
2023-01-13T05:48:07.846Z,-5.58
2023-01-13T05:50:34.430Z,-5.46
2023-01-13T05:53:00.987Z,-5.50
2023-01-13T05:55:27.536Z,-5.31
2023-01-13T05:57:54.021Z,-5.44
2023-01-13T06:00:20.836Z,-5.55
2023-01-13T06:02:47.421Z,-5.44
2023-01-13T06:05:13.987Z,-5.46
2023-01-13T06:07:40.632Z,-5.50
2023-01-13T06:10:08.016Z,-5.59
2023-01-13T06:12:34.488Z,-5.59
2023-01-13T06:15:01.115Z,-5.53
2023-01-13T06:17:27.606Z,-5.52
2023-01-13T06:19:54.093Z,-5.41
2023-01-13T06:22:30.871Z,-5.58
2023-01-13T06:24:57.804Z,-5.47
2023-01-13T06:27:24.926Z,-5.57
2023-01-13T06:29:51.568Z,-5.58
2023-01-13T06:32:31.842Z,-5.65
2023-01-13T06:35:05.468Z,-5.44
2023-01-13T06:37:33.622Z,-5.41
2023-01-13T06:40:02.554Z,-5.36
2023-01-13T06:42:33.062Z,-5.41
2023-01-13T06:44:59.795Z,-5.45
2023-01-13T06:47:26.446Z,-5.41
2023-01-13T06:49:53.050Z,-5.21
2023-01-13T06:52:19.681Z,-5.21
2023-01-13T06:54:46.265Z,-5.46
2023-01-13T06:57:12.858Z,-5.37
2023-01-13T06:59:39.334Z,-5.32
2023-01-13T07:02:05.940Z,-5.32
2023-01-13T07:04:32.480Z,-5.20
2023-01-13T07:06:59.067Z,-5.09
2023-01-13T07:09:25.595Z,-4.97
2023-01-13T07:11:52.208Z,-4.93
2023-01-13T07:14:18.853Z,-4.89
2023-01-13T07:16:45.381Z,-4.96
2023-01-13T07:19:11.937Z,-5.04
2023-01-13T07:21:38.381Z,-5.03
2023-01-13T07:24:05.296Z,-5.03
2023-01-13T07:26:31.968Z,-4.81
2023-01-13T07:28:58.551Z,-4.83
2023-01-13T07:31:25.080Z,-4.91
2023-01-13T07:33:51.660Z,-5.08
2023-01-13T07:36:18.142Z,-4.95
2023-01-13T07:38:44.750Z,-4.84
2023-01-13T07:41:14.855Z,-4.73
2023-01-13T07:43:41.711Z,-4.73
2023-01-13T07:46:08.216Z,-4.71
2023-01-13T07:48:34.982Z,-4.74
2023-01-13T07:51:07.025Z,-4.74
2023-01-13T07:53:34.790Z,-4.77
2023-01-13T07:56:03.311Z,-4.70
2023-01-13T07:58:30.322Z,-4.76
2023-01-13T08:00:56.962Z,-4.87
2023-01-13T08:03:24.066Z,-4.73
2023-01-13T08:05:50.712Z,-4.49
2023-01-13T08:08:17.583Z,-4.75
2023-01-13T08:10:44.370Z,-4.65
2023-01-13T08:13:12.627Z,-4.67
2023-01-13T08:15:39.210Z,-4.54
2023-01-13T08:18:05.927Z,-4.42
2023-01-13T08:20:32.573Z,-4.38
2023-01-13T08:23:00.613Z,-4.43
2023-01-13T08:25:28.840Z,-4.34
2023-01-13T08:27:55.963Z,-4.34
2023-01-13T08:30:22.902Z,-4.46
2023-01-13T08:32:50.491Z,-4.29
2023-01-13T08:35:18.215Z,-4.16
2023-01-13T08:37:45.971Z,-4.22
2023-01-13T08:40:13.848Z,-4.32
2023-01-13T08:42:40.569Z,-4.24
2023-01-13T08:45:09.234Z,-4.28
2023-01-13T08:47:35.799Z,-4.36
2023-01-13T08:50:02.608Z,-4.20
2023-01-13T08:52:30.249Z,-4.21
2023-01-13T08:54:57.110Z,-4.15
2023-01-13T08:57:23.666Z,-4.05
2023-01-13T08:59:50.367Z,-4.18
2023-01-13T09:02:20.712Z,-4.02
2023-01-13T09:04:47.624Z,-4.04
2023-01-13T09:07:14.725Z,-3.95
2023-01-13T09:09:42.076Z,-3.96
2023-01-13T09:12:11.937Z,-3.95
2023-01-13T09:14:39.131Z,-4.00
2023-01-13T09:17:06.598Z,-4.16
2023-01-13T09:19:33.733Z,-4.18
2023-01-13T09:22:00.330Z,-4.26
2023-01-13T09:24:26.902Z,-3.96
2023-01-13T09:26:53.414Z,-3.89
2023-01-13T09:29:20.503Z,-3.81
2023-01-13T09:31:47.540Z,-3.94
2023-01-13T09:34:19.253Z,-4.02
2023-01-13T09:36:45.884Z,-4.04
2023-01-13T09:39:12.706Z,-4.25
2023-01-13T09:41:49.492Z,-4.01
2023-01-13T09:44:23.643Z,-3.87
2023-01-13T09:47:00.365Z,-4.23
2023-01-13T09:49:40.948Z,-4.08
2023-01-13T09:52:21.709Z,-3.99
2023-01-13T09:55:01.695Z,-4.06
2023-01-13T09:57:32.512Z,-4.06
2023-01-13T09:59:59.295Z,-3.98
2023-01-13T10:02:45.126Z,-4.07
2023-01-13T10:05:19.941Z,-3.99
2023-01-13T10:07:54.219Z,-3.90
2023-01-13T10:10:50.351Z,-3.95
2023-01-13T10:13:31.131Z,-3.78
2023-01-13T10:16:31.189Z,-3.88
2023-01-13T10:19:14.661Z,-4.01
2023-01-13T10:22:08.440Z,-3.91
2023-01-13T10:25:05.234Z,-3.80
2023-01-13T10:27:37.017Z,-3.76
2023-01-13T10:30:18.832Z,-3.77
2023-01-13T10:32:57.711Z,-3.85
2023-01-13T10:36:02.942Z,-3.91
2023-01-13T10:38:35.507Z,-3.99
2023-01-13T10:41:16.849Z,-3.94
2023-01-13T10:43:52.712Z,-3.81
2023-01-13T10:46:20.597Z,-3.98
2023-01-13T10:49:19.405Z,-3.97
2023-01-13T10:51:46.243Z,-3.92
2023-01-13T10:54:12.664Z,-3.84
2023-01-13T10:56:44.311Z,-3.84
2023-01-13T10:59:13.627Z,-3.80
2023-01-13T11:01:43.457Z,-3.68
2023-01-13T11:04:26.064Z,-3.74
2023-01-13T11:06:52.751Z,-3.70
2023-01-13T11:09:21.646Z,-3.77
2023-01-13T11:11:49.457Z,-3.70
2023-01-13T11:14:21.806Z,-3.77
2023-01-13T11:16:53.985Z,-3.69
2023-01-13T11:19:24.348Z,-3.53
2023-01-13T11:21:53.560Z,-3.68
2023-01-13T11:24:34.314Z,-3.56
2023-01-13T11:27:06.877Z,-3.58
2023-01-13T11:29:45.885Z,-3.81
2023-01-13T11:32:17.495Z,-3.88
2023-01-13T11:34:49.671Z,-3.93
2023-01-13T11:37:30.695Z,-3.83
2023-01-13T11:40:21.868Z,-3.71
2023-01-13T11:42:49.102Z,-3.77
2023-01-13T11:45:25.043Z,-3.66
2023-01-13T11:47:55.201Z,-3.59
2023-01-13T11:50:34.805Z,-3.70
2023-01-13T11:53:09.654Z,-3.64
2023-01-13T11:55:49.048Z,-3.63
2023-01-13T11:58:49.726Z,-3.51
2023-01-13T12:01:42.106Z,-3.52
2023-01-13T12:04:17.415Z,-3.62
2023-01-13T12:06:44.438Z,-3.49
2023-01-13T12:09:16.897Z,-3.56
2023-01-13T12:11:43.351Z,-3.49
2023-01-13T12:14:29.543Z,-3.55
2023-01-13T12:16:56.684Z,-3.60
2023-01-13T12:19:30.930Z,-3.59
2023-01-13T12:22:11.771Z,-3.58
2023-01-13T12:24:44.708Z,-3.71
2023-01-13T12:27:14.257Z,-3.75
2023-01-13T12:29:40.793Z,-3.58
2023-01-13T12:32:14.511Z,-3.74
2023-01-13T12:35:04.348Z,-3.86
2023-01-13T12:37:37.123Z,-3.73
2023-01-13T12:40:28.124Z,-3.68
2023-01-13T12:43:03.978Z,-3.71
2023-01-13T12:45:33.729Z,-3.78
2023-01-13T12:48:01.114Z,-3.71
2023-01-13T12:50:27.722Z,-3.68
2023-01-13T12:52:59.894Z,-3.53
2023-01-13T12:55:34.367Z,-3.73
2023-01-13T12:58:06.877Z,-3.76
2023-01-13T13:00:39.423Z,-3.64
2023-01-13T13:03:12.304Z,-3.71
2023-01-13T13:06:00.649Z,-3.84
2023-01-13T13:08:36.038Z,-3.69
2023-01-13T13:11:21.254Z,-3.81
2023-01-13T13:13:48.894Z,-3.89
2023-01-13T13:16:46.393Z,-3.89
2023-01-13T13:19:18.940Z,-3.99
2023-01-13T13:22:07.165Z,-3.80
2023-01-13T13:24:33.801Z,-3.80
2023-01-13T13:27:38.568Z,-3.76
2023-01-13T13:30:28.458Z,-3.82
2023-01-13T13:33:09.925Z,-3.92
2023-01-13T13:35:49.225Z,-3.92
2023-01-13T13:38:24.882Z,-3.93
2023-01-13T13:40:51.502Z,-3.95
2023-01-13T13:43:20.409Z,-4.04
2023-01-13T13:45:52.072Z,-3.97
2023-01-13T13:48:28.085Z,-3.80
2023-01-13T13:51:01.426Z,-3.76
2023-01-13T13:53:35.374Z,-3.73
2023-01-13T13:56:05.275Z,-3.77
2023-01-13T13:58:33.346Z,-3.85
2023-01-13T14:01:00.624Z,-3.77
2023-01-13T14:03:34.308Z,-3.85
2023-01-13T14:06:05.852Z,-3.85
2023-01-13T14:08:38.664Z,-3.75
2023-01-13T14:11:25.938Z,-3.65
2023-01-13T14:14:14.109Z,-3.84
2023-01-13T14:16:41.212Z,-3.61
2023-01-13T14:19:35.913Z,-3.89
2023-01-13T14:22:04.274Z,-3.82
2023-01-13T14:24:31.742Z,-3.76
2023-01-13T14:27:13.936Z,-3.83
2023-01-13T14:29:40.895Z,-3.82
2023-01-13T14:32:08.015Z,-3.68
2023-01-13T14:34:35.479Z,-3.71
2023-01-13T14:37:02.677Z,-3.82
2023-01-13T14:39:41.086Z,-3.66
2023-01-13T14:42:16.454Z,-3.66
2023-01-13T14:44:49.635Z,-3.73
2023-01-13T14:47:23.959Z,-3.64
2023-01-13T14:50:14.788Z,-3.60
2023-01-13T14:52:49.520Z,-3.78
2023-01-13T14:55:24.156Z,-3.80
2023-01-13T14:57:50.912Z,-3.72
2023-01-13T15:00:25.542Z,-3.76
2023-01-13T15:02:58.093Z,-3.73
2023-01-13T15:05:27.588Z,-3.80
2023-01-13T15:08:02.917Z,-3.66
2023-01-13T15:10:34.946Z,-3.67
2023-01-13T15:13:04.120Z,-3.70
2023-01-13T15:15:37.889Z,-3.75
2023-01-13T15:18:15.881Z,-3.85
2023-01-13T15:20:43.101Z,-3.77
2023-01-13T15:23:10.265Z,-3.90
2023-01-13T15:25:40.575Z,-3.94
2023-01-13T15:28:14.387Z,-3.83
2023-01-13T15:30:40.913Z,-3.81
2023-01-13T15:33:11.009Z,-3.76
2023-01-13T15:35:39.442Z,-3.62
2023-01-13T15:38:12.053Z,-3.67
2023-01-13T15:40:38.669Z,-3.77
2023-01-13T15:43:05.345Z,-3.80
2023-01-13T15:45:34.015Z,-3.71
2023-01-13T15:48:00.583Z,-3.67
2023-01-13T15:50:28.586Z,-3.46
2023-01-13T15:52:55.164Z,-3.59
2023-01-13T15:55:21.682Z,-3.57
2023-01-13T15:57:50.423Z,-3.50
2023-01-13T16:00:19.828Z,-3.47
2023-01-13T16:02:46.474Z,-3.41
2023-01-13T16:05:13.533Z,-3.39
2023-01-13T16:07:40.371Z,-3.26
2023-01-13T16:10:17.257Z,-3.30
2023-01-13T16:12:43.834Z,-3.42
2023-01-13T16:15:13.644Z,-3.40
2023-01-13T16:17:41.061Z,-3.42
2023-01-13T16:20:16.540Z,-3.53
2023-01-13T16:22:43.156Z,-3.67
2023-01-13T16:25:17.312Z,-3.70
2023-01-13T16:27:44.388Z,-3.73
2023-01-13T16:30:20.880Z,-3.73
2023-01-13T16:32:48.200Z,-3.77
2023-01-13T16:35:14.841Z,-3.71
2023-01-13T16:37:41.468Z,-3.73
2023-01-13T16:40:31.111Z,-3.77
2023-01-13T16:42:58.311Z,-3.55
2023-01-13T16:45:25.109Z,-3.59
2023-01-13T16:47:52.029Z,-3.72
2023-01-13T16:50:36.795Z,-3.77
2023-01-13T16:53:04.549Z,-3.67
2023-01-13T16:55:31.321Z,-3.64
2023-01-13T16:57:57.937Z,-3.56
2023-01-13T17:00:24.650Z,-3.61
2023-01-13T17:02:51.160Z,-3.78
2023-01-13T17:05:17.793Z,-3.81
2023-01-13T17:07:46.733Z,-3.67
2023-01-13T17:10:23.074Z,-3.74
2023-01-13T17:12:49.961Z,-3.77
2023-01-13T17:15:18.594Z,-3.81
2023-01-13T17:17:47.074Z,-3.76
2023-01-13T17:20:15.893Z,-3.80
2023-01-13T17:22:43.901Z,-3.69
2023-01-13T17:25:13.923Z,-3.64
2023-01-13T17:27:40.585Z,-3.62
2023-01-13T17:30:08.155Z,-3.52
2023-01-13T17:32:34.676Z,-3.77
2023-01-13T17:35:01.271Z,-3.73
2023-01-13T17:37:28.055Z,-3.71
2023-01-13T17:39:54.708Z,-3.58
2023-01-13T17:42:21.359Z,-3.74
2023-01-13T17:44:48.073Z,-3.62
2023-01-13T17:47:15.002Z,-3.62
2023-01-13T17:49:41.577Z,-3.71
2023-01-13T17:52:08.085Z,-3.67
2023-01-13T17:54:34.834Z,-3.71
2023-01-13T17:57:01.574Z,-3.73
2023-01-13T17:59:28.106Z,-3.60
2023-01-13T18:01:54.727Z,-3.55
2023-01-13T18:04:25.548Z,-3.56
2023-01-13T18:06:52.080Z,-3.70
2023-01-13T18:09:18.564Z,-3.70
2023-01-13T18:11:47.292Z,-3.48
2023-01-13T18:14:14.045Z,-3.58
2023-01-13T18:16:40.749Z,-3.50
2023-01-13T18:19:07.605Z,-3.65
2023-01-13T18:21:34.124Z,-3.68
2023-01-13T18:24:00.570Z,-3.75
2023-01-13T18:26:27.947Z,-3.73
2023-01-13T18:28:54.419Z,-3.48
2023-01-13T18:31:20.933Z,-3.66
2023-01-13T18:33:47.537Z,-3.72
2023-01-13T18:36:14.091Z,-3.64
2023-01-13T18:38:40.636Z,-3.70
2023-01-13T18:41:07.387Z,-3.65
2023-01-13T18:43:34.241Z,-3.62
2023-01-13T18:46:00.890Z,-3.55
2023-01-13T18:48:27.537Z,-3.68
2023-01-13T18:50:54.015Z,-3.69
2023-01-13T18:53:20.538Z,-3.55
2023-01-13T18:55:47.053Z,-3.57
2023-01-13T18:58:13.523Z,-3.60
2023-01-13T19:00:40.087Z,-3.70
2023-01-13T19:05:35.928Z,-3.73
2023-01-13T19:08:03.216Z,-3.63
2023-01-13T19:10:29.800Z,-3.58
2023-01-13T19:12:56.336Z,-3.50
2023-01-13T19:15:22.923Z,-3.50
2023-01-13T19:17:49.502Z,-3.49
2023-01-13T19:20:16.221Z,-3.62
2023-01-13T19:22:42.857Z,-3.46
2023-01-13T19:25:09.601Z,-3.69
2023-01-13T19:27:36.108Z,-3.43
2023-01-13T19:30:03.192Z,-3.61
2023-01-13T19:32:33.573Z,-3.62
2023-01-13T19:35:00.123Z,-3.52
2023-01-13T19:37:27.239Z,-3.57
2023-01-13T19:39:53.787Z,-3.70
2023-01-13T19:42:21.171Z,-3.68
2023-01-13T19:44:47.708Z,-3.76
2023-01-13T19:47:14.429Z,-3.79
2023-01-13T19:49:41.047Z,-3.63
2023-01-13T19:52:07.649Z,-3.61
2023-01-13T19:54:34.729Z,-3.69
2023-01-13T19:57:01.507Z,-3.54
2023-01-13T19:59:28.170Z,-3.61
2023-01-13T20:01:58.640Z,-3.53
2023-01-13T20:04:25.238Z,-3.43
2023-01-13T20:06:51.782Z,-3.60
2023-01-13T20:09:18.334Z,-3.52
2023-01-13T20:11:44.761Z,-3.76
2023-01-13T20:14:11.697Z,-3.83
2023-01-13T20:16:38.208Z,-3.80
2023-01-13T20:19:04.677Z,-3.79
2023-01-13T20:21:31.197Z,-3.83
2023-01-13T20:23:57.835Z,-3.77
2023-01-13T20:26:24.344Z,-3.89
2023-01-13T20:28:50.810Z,-3.80
2023-01-13T20:31:17.544Z,-3.68
2023-01-13T20:33:44.095Z,-3.62
2023-01-13T20:36:24.954Z,-3.49
2023-01-13T20:38:51.427Z,-3.79
2023-01-13T20:41:18.041Z,-3.94
2023-01-13T20:43:44.554Z,-3.90
2023-01-13T20:46:11.054Z,-3.91
2023-01-13T20:48:38.252Z,-3.89
2023-01-13T20:51:04.981Z,-3.84
2023-01-13T20:53:31.525Z,-3.90
2023-01-13T20:55:58.122Z,-3.81
2023-01-13T20:58:24.860Z,-3.89
2023-01-13T21:00:51.373Z,-3.90
2023-01-13T21:03:17.948Z,-3.75
2023-01-13T21:05:44.610Z,-3.81
2023-01-13T21:08:11.110Z,-3.88
2023-01-13T21:10:37.627Z,-3.94
2023-01-13T21:13:04.186Z,-3.83
2023-01-13T21:15:30.684Z,-3.69
2023-01-13T21:17:57.152Z,-4.00
2023-01-13T21:20:23.804Z,-3.95
2023-01-13T21:22:50.357Z,-3.87
2023-01-13T21:25:18.100Z,-3.95
2023-01-13T21:27:44.691Z,-3.88
2023-01-13T21:30:12.421Z,-3.91
2023-01-13T21:32:38.916Z,-3.92
2023-01-13T21:35:05.640Z,-3.90
2023-01-13T21:37:32.306Z,-3.80
2023-01-13T21:39:58.787Z,-3.80
2023-01-13T21:42:25.492Z,-3.73
2023-01-13T21:44:52.387Z,-3.63
2023-01-13T21:47:19.567Z,-3.57
2023-01-13T21:49:46.833Z,-3.85
2023-01-13T21:52:14.357Z,-3.55
2023-01-13T21:54:41.329Z,-3.83
2023-01-13T21:57:07.978Z,-3.65
2023-01-13T21:59:34.499Z,-3.66
2023-01-13T22:02:23.672Z,-3.56
2023-01-13T22:04:47.895Z,-3.90
2023-01-13T22:07:15.728Z,-4.01
2023-01-13T22:09:42.423Z,-4.05
2023-01-13T22:12:09.683Z,-3.92
2023-01-13T22:14:36.122Z,-3.95
2023-01-13T22:17:02.698Z,-3.74
2023-01-13T22:19:30.004Z,-3.99
2023-01-13T22:21:57.385Z,-3.89
2023-01-13T22:24:23.860Z,-3.76
2023-01-13T22:26:50.554Z,-4.00
2023-01-13T22:29:17.271Z,-4.06
2023-01-13T22:31:43.789Z,-4.10
2023-01-13T22:34:11.894Z,-3.94
2023-01-13T22:36:38.405Z,-3.85
2023-01-13T22:39:05.928Z,-4.07
2023-01-13T22:41:32.564Z,-3.88
2023-01-13T22:43:59.227Z,-3.88
2023-01-13T22:46:27.243Z,-4.01
2023-01-13T22:48:54.032Z,-4.09
2023-01-13T22:51:20.576Z,-3.98
2023-01-13T22:53:47.128Z,-3.98
2023-01-13T22:56:21.806Z,-3.94
2023-01-13T22:58:52.392Z,-4.00
2023-01-13T23:01:19.968Z,-4.06
2023-01-13T23:03:50.395Z,-4.02
2023-01-13T23:06:18.730Z,-4.04
2023-01-13T23:08:46.090Z,-4.01
2023-01-13T23:11:15.493Z,-3.99
2023-01-13T23:13:42.741Z,-3.86
2023-01-13T23:16:15.334Z,-3.88
2023-01-13T23:18:42.256Z,-3.93
2023-01-13T23:21:11.860Z,-3.89
2023-01-13T23:23:38.639Z,-3.79
2023-01-13T23:26:06.870Z,-3.62
2023-01-13T23:28:34.359Z,-3.75
2023-01-13T23:31:06.402Z,-3.82
2023-01-13T23:33:33.120Z,-3.79
2023-01-13T23:36:02.537Z,-3.85
2023-01-13T23:38:29.967Z,-3.88
2023-01-13T23:40:56.803Z,-3.81
2023-01-13T23:43:24.031Z,-3.90
2023-01-13T23:45:51.096Z,-3.96
2023-01-13T23:48:17.933Z,-3.89
2023-01-13T23:50:44.688Z,-3.75
2023-01-13T23:53:11.189Z,-3.68
2023-01-13T23:55:37.795Z,-3.90
2023-01-13T23:58:04.267Z,-3.81
